Latest Weather Observations for Coonabarabran Airport

IDN60801

Issued at 11:05 am EDT Sunday 26 October 2014 (issued every 30 minutes, with the page automatically refreshed every 10 minutes)

About weather observations | Map of weather stations | Latest weather observations for NSW | Other Formats
Station Details ID: 064017 Name: COONABARABRAN AIRPORT AWS Lat: -31.33 Lon: 149.27 Height: 645.0 m
Data from the previous 72 hours. | See also: Recent months for locations in New South Wales
Date/Time
EDT
Temp
°C
App
Temp
°C
Dew
Point
Rel
Hum
%
Delta-T
°C
Wind Press
QNH
hPa
Press
MSL
hPa
Rain
since 9 am
mm
Dir
 
Spd
km/h
Gust
km/h
Spd
kts
Gust
kts
26/11:00am 30.8 27.0 6.0 21 13.6 NNW 15 26 8 14 1015.3 1013.2 0.0
26/10:30am 30.0 26.2 6.0 22 13.1 NNW 15 24 8 13 1015.7 1013.7 0.0
26/10:00am 28.5 24.0 6.0 24 12.2 NNW 19 24 10 13 1015.6 1013.6 0.0
26/09:30am 27.4 22.9 6.8 27 11.2 NNW 20 28 11 15 1015.7 1013.7 0.0
26/09:00am 26.2 20.4 6.3 28 10.7 NNW 26 35 14 19 1015.7 1013.7 0.0
26/08:30am 25.6 19.7 5.8 28 10.5 NNW 26 35 14 19 1015.6 1013.6 0.0
26/08:00am 25.2 20.0 5.4 28 10.4 NNW 22 30 12 16 1015.7 1013.7 0.0
26/07:30am 23.0 18.3 5.9 33 8.9 N 20 26 11 14 1015.5 1013.5 0.0
26/07:00am 22.1 17.5 5.5 34 8.6 N 19 24 10 13 1015.6 1013.6 0.0
26/06:30am 21.4 17.1 5.3 35 8.2 N 17 20 9 11 1015.4 1013.4 0.0
26/06:00am 22.0 17.6 5.0 33 8.7 N 17 20 9 11 1015.3 1013.2 0.0
26/05:30am 21.7 17.4 5.2 34 8.4 N 17 24 9 13 1015.2 1013.1 0.0
26/05:00am 22.2 17.5 5.2 33 8.7 N 19 20 10 11 1015.0 1012.9 0.0
26/04:30am 21.7 17.4 5.2 34 8.4 N 17 22 9 12 1015.1 1013.0 0.0
26/04:00am 22.1 18.5 5.1 33 8.7 N 13 17 7 9 1015.2 1013.1 0.0
26/03:30am 21.9 17.7 5.8 35 8.3 N 17 20 9 11 1015.3 1013.2 0.0
26/03:00am 22.7 18.5 5.6 33 8.9 N 17 22 9 12 1015.4 1013.4 0.0
26/02:30am 22.0 18.2 5.8 35 8.4 N 15 19 8 10 1015.5 1013.5 0.0
26/02:00am 22.5 18.6 5.4 33 8.8 N 15 17 8 9 1016.0 1013.9 0.0
26/01:30am 23.5 19.6 5.4 31 9.4 N 15 17 8 9 1016.7 1014.6 0.0
26/01:00am 25.1 21.6 5.3 28 10.4 ESE 13 19 7 10 1017.3 1015.3 0.0
26/12:30am 24.2 20.7 5.5 30 9.8 ENE 13 17 7 9 1017.8 1015.7 0.0
26/12:00am 25.5 22.8 5.7 28 10.4 S 9 11 5 6 1019.0 1017.0 0.0
 
Date/Time
EDT
Temp
°C
App
Temp
°C
Dew
Point
Rel
Hum
%
Delta-T
°C
Wind Press
QNH
hPa
Press
MSL
hPa
Rain
since 9 am
mm
Dir
 
Spd
km/h
Gust
km/h
Spd
kts
Gust
kts
25/11:30pm 25.9 21.4 6.0 28 10.6 WSW 19 24 10 13 1019.6 1017.6 0.0
25/11:00pm 25.7 18.1 5.8 28 10.5 WSW 35 61 19 33 1019.2 1017.1 0.0
25/10:51pm 25.3 16.8 5.0 27 10.6 SW 39 59 21 32 1018.9 1016.9 0.0
25/10:47pm 25.4 17.8 4.0 25 11.0 W 33 54 18 29 1018.7 1016.7 0.0
25/10:45pm 25.5 17.3 2.9 23 11.4 W 35 43 19 23 1018.7 1016.7 0.0
25/10:30pm 25.1 21.0 2.5 23 11.3 N 13 15 7 8 1017.3 1015.3 0.0
25/10:00pm 23.3 18.9 2.7 26 10.2 NE 15 20 8 11 1017.2 1015.2 0.0
25/09:30pm 26.8 22.9 1.3 19 12.6 NNE 11 11 6 6 1017.1 1015.1 0.0
25/09:00pm 27.0 23.5 1.4 19 12.6 N 9 11 5 6 1017.1 1015.1 0.0
25/08:30pm 26.9 23.3 0.6 18 12.8 N 9 13 5 7 1016.8 1014.8 0.0
25/08:00pm 28.6 26.7 0.3 16 13.9 CALM 0 0 0 0 1016.5 1014.4 0.0
25/07:30pm 28.3 26.3 0.1 16 13.8 CALM 0 0 0 0 1016.3 1014.2 0.0
25/07:00pm 30.2 27.0 -0.2 14 14.9 ENE 6 7 3 4 1016.1 1014.0 0.0
25/06:30pm 30.9 26.5 0.3 14 15.2 SE 13 15 7 8 1015.7 1013.7 0.0
25/06:00pm 33.0 28.5 -0.2 12 16.6 SSW 13 20 7 11 1015.7 1013.7 0.0
25/05:30pm 33.1 27.7 -1.3 11 16.9 SE 17 26 9 14 1015.7 1013.7 0.0
25/05:00pm 32.1 28.3 -0.9 12 16.2 SW 9 13 5 7 1016.1 1014.0 0.0
25/04:30pm 32.3 28.1 -0.7 12 16.3 S 11 19 6 10 1016.1 1014.0 0.0
25/04:00pm 33.4 28.6 0.1 12 16.8 WSW 15 22 8 12 1016.2 1014.1 0.0
25/03:30pm 33.6 28.8 0.3 12 16.9 WSW 15 20 8 11 1016.4 1014.3 0.0
25/03:00pm 33.0 27.4 0.9 13 16.3 S 20 28 11 15 1016.9 1014.9 0.0
25/02:30pm 33.6 26.7 0.3 12 16.9 S 26 35 14 19 1017.1 1015.1 0.0
25/02:00pm 33.8 27.2 -0.7 11 17.2 S 24 32 13 17 1017.6 1015.5 0.0
25/01:30pm 33.3 27.4 -1.1 11 17.0 SSW 20 37 11 20 1018.0 1015.9 0.0
25/01:00pm 33.0 26.2 0.9 13 16.3 SSE 26 33 14 18 1018.3 1016.3 0.0
25/12:30pm 31.8 25.3 0.0 13 15.8 SSE 24 35 13 19 1018.7 1016.7 0.0
25/12:00pm 31.8 28.4 2.0 15 15.3 SSW 9 26 5 14 1019.3 1017.2 0.0
25/11:30am 31.3 26.1 2.5 16 14.9 S 19 24 10 13 1019.8 1017.8 0.0
25/11:00am 30.4 26.5 3.4 18 14.1 SE 13 22 7 12 1020.1 1018.1 0.0
25/10:30am 28.7 26.0 2.8 19 13.3 E 6 11 3 6 1020.2 1018.2 0.0
25/10:00am 27.8 24.4 2.1 19 12.9 ESE 9 13 5 7 1020.3 1018.3 0.0
25/09:30am 27.2 23.1 2.3 20 12.5 SSE 13 17 7 9 1020.4 1018.4 0.0
25/09:00am 26.1 23.0 3.4 23 11.5 SSE 9 13 5 7 1020.2 1018.2 0.0
25/08:30am 25.1 22.1 4.3 26 10.7 S 9 15 5 8 1020.1 1018.1 0.0
25/08:00am 24.1 20.9 2.9 25 10.5 S 9 11 5 6 1020.0 1018.0 0.0
25/07:30am 23.1 19.9 3.1 27 9.9 SSW 9 13 5 7 1019.6 1017.6 0.0
25/07:00am 22.0 18.7 2.2 27 9.6 SSW 9 13 5 7 1019.4 1017.3 0.0
25/06:30am 21.3 17.5 1.6 27 9.4 SSW 11 15 6 8 1019.0 1017.0 0.0
25/06:00am 21.6 17.3 1.3 26 9.6 SSW 13 17 7 9 1018.6 1016.6 0.0
25/05:30am 21.4 17.2 1.6 27 9.4 SSW 13 17 7 9 1018.3 1016.3 0.0
25/05:00am 22.0 17.5 2.2 27 9.6 SW 15 20 8 11 1018.1 1016.1 0.0
25/04:30am 22.3 17.9 2.9 28 9.6 SW 15 20 8 11 1017.9 1015.8 0.0
25/04:00am 23.0 18.3 3.0 27 9.9 WSW 17 20 9 11 1017.7 1015.6 0.0
25/03:30am 23.4 18.5 2.3 25 10.4 WSW 17 22 9 12 1017.6 1015.5 0.0
25/03:00am 23.9 18.6 2.1 24 10.7 WSW 19 20 10 11 1017.7 1015.6 0.0
25/02:30am 24.3 19.5 2.5 24 10.8 WSW 17 20 9 11 1017.7 1015.6 0.0
25/02:00am 24.9 19.5 2.4 23 11.2 WSW 20 24 11 13 1017.7 1015.6 0.0
25/01:30am 25.5 20.2 2.9 23 11.4 WSW 20 26 11 14 1017.9 1015.8 0.0
25/01:00am 25.7 20.5 2.4 22 11.6 WSW 19 24 10 13 1017.9 1015.8 0.0
25/12:30am 25.5 21.0 2.2 22 11.6 WSW 15 20 8 11 1018.1 1016.1 0.0
25/12:00am 25.2 20.7 2.0 22 11.4 W 15 17 8 9 1018.0 1015.9 0.0
 
Date/Time
EDT
Temp
°C
App
Temp
°C
Dew
Point
Rel
Hum
%
Delta-T
°C
Wind Press
QNH
hPa
Press
MSL
hPa
Rain
since 9 am
mm
Dir
 
Spd
km/h
Gust
km/h
Spd
kts
Gust
kts
24/11:30pm 26.3 21.7 1.6 20 12.2 W 15 20 8 11 1018.0 1015.9 0.0
24/11:00pm 26.6 22.3 1.1 19 12.5 WSW 13 17 7 9 1018.1 1016.1 0.0
24/10:30pm 27.7 22.7 1.2 18 13.1 WSW 17 28 9 15 1017.8 1015.7 0.0
24/10:00pm 26.4 22.7 2.3 21 12.0 W 11 13 6 7 1018.0 1015.9 0.0
24/09:30pm 27.6 23.5 4.6 23 12.1 WSW 15 24 8 13 1018.0 1015.9 0.0
24/09:00pm 25.8 21.3 6.9 30 10.2 WNW 20 26 11 14 1017.5 1015.4 0.0
24/08:30pm 26.2 22.7 7.3 30 10.3 N 15 19 8 10 1016.5 1014.4 0.0
24/08:00pm 26.8 22.9 7.3 29 10.7 N 17 20 9 11 1016.3 1014.2 0.0
24/07:30pm 27.3 24.1 6.7 27 11.2 N 13 20 7 11 1016.1 1014.0 0.0
24/07:00pm 28.7 25.3 6.1 24 12.2 N 13 17 7 9 1016.0 1013.9 0.0
24/06:30pm 30.0 27.1 6.6 23 12.9 N 11 17 6 9 1015.9 1013.8 0.0
24/06:00pm 30.3 26.1 5.6 21 13.4 N 17 26 9 14 1015.9 1013.8 0.0
24/05:30pm 30.4 25.0 6.3 22 13.2 NNW 24 32 13 17 1015.9 1013.8 0.0
24/05:00pm 31.4 26.5 7.1 22 13.6 NNW 22 35 12 19 1016.1 1014.0 0.0
24/04:30pm 31.4 26.2 7.1 22 13.6 NNW 24 39 13 21 1016.6 1014.5 0.0
24/04:00pm 31.6 26.4 7.3 22 13.6 NW 24 33 13 18 1016.8 1014.8 0.0
24/03:30pm 31.6 26.0 7.3 22 13.6 NNW 26 43 14 23 1017.1 1015.1 0.0
24/03:04pm 31.1 25.2 7.5 23 13.2 NNW 28 46 15 25 1017.6 1015.5 0.0
24/03:00pm 31.1 25.8 6.9 22 13.4 N 24 46 13 25 1017.7 1015.6 0.0
24/02:57pm 31.0 24.9 6.8 22 13.4 N 28 46 15 25 1017.6 1015.5 0.0
24/02:30pm 31.3 26.8 7.1 22 13.5 NW 20 26 11 14 1018.1 1016.1 0.0
24/02:00pm 30.4 25.0 8.2 25 12.5 N 26 39 14 21 1018.5 1016.5 0.0
24/01:30pm 30.1 24.9 7.3 24 12.7 NNW 24 39 13 21 1019.0 1017.0 0.0
24/01:00pm 29.9 25.1 8.9 27 12.0 N 24 37 13 20 1019.4 1017.3 0.0
24/12:30pm 29.0 24.8 9.7 30 11.1 N 22 32 12 17 1020.1 1018.1 0.0
24/12:00pm 28.3 23.8 10.0 32 10.5 N 24 35 13 19 1020.6 1018.6 0.0
24/11:30am 26.4 22.6 9.7 35 9.5 N 20 28 11 15 1021.3 1019.3 0.0
24/11:00am 26.4 22.0 10.5 37 9.1 N 24 37 13 20 1021.6 1019.6 0.0
24/10:30am 25.6 21.3 10.6 39 8.6 N 24 35 13 19 1021.7 1019.7 0.0
24/10:00am 24.2 20.4 9.8 40 8.1 N 20 32 11 17 1022.1 1020.1 0.0
24/09:30am 23.3 19.9 10.7 45 7.2 N 19 24 10 13 1022.5 1020.5 0.0
24/09:00am 21.7 19.4 10.5 49 6.3 N 13 19 7 10 1022.7 1020.7 0.0
24/08:30am 20.0 18.5 10.4 54 5.4 N 9 15 5 8 1022.6 1020.6 0.0
24/08:00am 19.4 18.2 10.4 56 5.0 N 7 15 4 8 1022.3 1020.4 0.0
24/07:30am 20.0 17.6 9.9 52 5.6 N 13 17 7 9 1022.0 1020.0 0.0
24/07:00am 18.2 16.9 10.1 59 4.4 W 7 13 4 7 1022.0 1020.0 0.0
24/06:30am 17.4 14.2 10.1 62 4.0 N 17 20 9 11 1021.3 1019.3 0.0
24/06:00am 16.9 13.7 9.8 63 3.8 N 17 22 9 12 1020.9 1018.9 0.0
24/05:30am 17.4 14.5 9.6 60 4.2 N 15 20 8 11 1020.6 1018.6 0.0
24/05:00am 16.8 14.7 9.7 63 3.8 N 11 15 6 8 1020.5 1018.5 0.0
24/04:30am 17.8 14.2 10.7 63 3.9 NE 20 24 11 13 1020.2 1018.2 0.0
24/04:00am 17.3 14.2 10.2 63 3.9 S 17 30 9 16 1021.2 1019.2 0.0
24/03:30am 19.2 17.5 8.5 50 5.7 N 7 15 4 8 1020.2 1018.2 0.0
24/03:00am 19.7 16.6 9.0 50 5.8 N 15 39 8 21 1019.3 1017.2 0.0
24/02:30am 18.6 15.9 9.1 54 5.1 NNE 13 17 7 9 1020.6 1018.6 0.0
24/02:00am 19.0 15.5 8.9 52 5.4 NNE 17 20 9 11 1020.6 1018.6 0.0
24/01:30am 19.2 15.8 9.1 52 5.5 NNE 17 22 9 12 1021.0 1019.0 0.0
24/01:00am 19.2 15.4 9.7 54 5.2 NE 20 26 11 14 1020.9 1018.9 0.0
24/12:30am 19.2 15.0 9.7 54 5.2 NE 22 28 12 15 1021.2 1019.2 0.0
24/12:00am 19.9 15.7 9.8 52 5.6 ENE 22 28 12 15 1021.2 1019.2 0.0
 
Date/Time
EDT
Temp
°C
App
Temp
°C
Dew
Point
Rel
Hum
%
Delta-T
°C
Wind Press
QNH
hPa
Press
MSL
hPa
Rain
since 9 am
mm
Dir
 
Spd
km/h
Gust
km/h
Spd
kts
Gust
kts
23/11:30pm 19.6 16.0 9.8 53 5.4 ENE 19 20 10 11 1021.4 1019.4 0.0
23/11:00pm 20.8 18.1 9.1 47 6.4 N 13 15 7 8 1021.1 1019.1 0.0
23/10:30pm 20.9 18.3 9.2 47 6.4 N 13 15 7 8 1021.0 1019.0 0.0
23/10:00pm 21.3 19.1 9.2 46 6.6 N 11 13 6 7 1021.0 1019.0 0.0
23/09:30pm 21.6 19.2 8.8 44 7.0 N 11 15 6 8 1020.5 1018.5 0.0
23/09:00pm 22.4 20.3 8.1 40 7.7 N 9 13 5 7 1020.3 1018.3 0.0
23/08:30pm 24.0 21.6 4.4 28 10.0 WSW 6 9 3 5 1019.6 1017.6 0.0
23/08:00pm 23.9 21.7 5.3 30 9.7 SSW 6 13 3 7 1019.2 1017.1 0.0
23/07:30pm 25.4 23.3 5.6 28 10.4 SSW 6 13 3 7 1018.8 1016.8 0.0
23/07:00pm 27.1 24.9 6.0 26 11.3 SW 7 13 4 7 1018.6 1016.6 0.0
23/06:30pm 28.1 25.1 6.2 25 11.9 SW 11 15 6 8 1018.5 1016.5 0.0
23/06:00pm 28.1 25.0 5.6 24 12.0 S 11 15 6 8 1018.1 1016.1 0.0
23/05:30pm 28.8 25.8 6.2 24 12.3 SW 11 17 6 9 1018.1 1016.1 0.0
23/05:00pm 29.5 25.8 6.2 23 12.7 WSW 15 26 8 14 1018.0 1015.9 0.0
23/04:30pm 29.7 25.6 6.4 23 12.8 SW 17 26 9 14 1018.1 1016.1 0.0
23/04:00pm 29.4 25.0 6.7 24 12.5 S 19 28 10 15 1018.2 1016.2 0.0
23/03:30pm 28.9 24.8 6.3 24 12.3 W 17 28 9 15 1018.5 1016.5 0.0
23/03:00pm 27.8 24.9 6.6 26 11.5 S 11 17 6 9 1018.8 1016.8 0.0
23/02:30pm 29.1 25.1 6.5 24 12.4 SSW 17 22 9 12 1019.6 1017.6 0.0
23/02:00pm 27.7 24.4 6.5 26 11.5 WNW 13 24 7 13 1020.0 1018.0 0.0
23/01:30pm 27.9 25.5 7.2 27 11.4 W 9 26 5 14 1020.3 1018.3 0.0
23/01:00pm 27.4 23.8 6.8 27 11.2 SW 15 22 8 12 1020.8 1018.7 0.0
23/12:30pm 27.4 24.8 7.8 29 10.9 SSW 11 19 6 10 1021.1 1019.1 0.0
23/12:00pm 26.3 23.9 10.0 36 9.3 NNW 13 26 7 14 1021.3 1019.3 0.0
23/11:30am 25.5 24.4 10.5 39 8.6 NW 7 13 4 7 1021.8 1019.8 0.0

Other Formats:

Comma delimited format used in spreadsheet applications
http://www.bom.gov.au/fwo/IDN60801/IDN60801.95728.axf

JavaScript Object Notation format (JSON) in row-major order
http://www.bom.gov.au/fwo/IDN60801/IDN60801.95728.json